Saint Just, United Kingdom
Current Conditions -  °F | °C
As of 3:50 AM on Wednesday 22 Oct 2014 (Local Time) from EGDR Reporting Station
Broken Clouds Broken Clouds  
Wind Chill: 52°   Ceiling: 4000
Heat Index: 52°   Visibility: 6mi
Dew Point: 41°   Wind: 8mph
Humidity: 67%   Direction: 280°W
Pressure: 30.39"   Gusts: NA
Location:  50.12°N, 5.7°W
Report Text: EGDR 220250Z 28007KT 9999 SCT032 BKN040 11/05 Q1029 BLU
Loading
Personal Weather Stations






























Interactive Weather Map
Tropical Storm Tracking
New forecast layout! Learn more

10-Day Weather Forecast

Advertisements
Track Severe Weather on mobile